KBCB/BCB METAR and TAF weather

Enter ICAO airport designator
Station Type Date Time Source
KBCB METAR 2022/01/27 23:15 UTC NOAA

KBCB 272315Z AUTO 12007KT 10SM CLR 00/M08 A3021 RMK AO2 T00041078


Station Type Date Time Source
KBCB Decoded METAR 2022/01/27 23:15 UTC NOAA

Virginia Tech Airport, VA, United States (KBCB) 37-13N 080-25W
Jan 27, 2022 - 06:15 PM EST / 2022.01.27 2315 UTC
Wind: from the ESE (120 degrees) at 8 MPH (7 KT):0
Visibility: 10 mile(s):0
Sky conditions: clear
Temperature: 32.7 F (0.4 C)
Windchill: 24 F (-4 C):1
Dew Point: 18.0 F (-7.8 C)
Relative Humidity: 54%
Pressure (altimeter): 30.21 in. Hg (1023 hPa)
ob: KBCB 272315Z AUTO 12007KT 10SM CLR 00/M08 A3021 RMK AO2 T00041078
cycle: 23

Station Type Date Time Source
KBCB TAF 2022/01/27 18:33 UTC NOAA

TAF KBCB 271730Z 2718/2818 00000KT P6SM SKC
FM280100 23003KT P6SM BKN110
FM280800 VRB02KT P6SM OVC100
FM281600 27004KT P6SM OVC050

Example: see airport list